sensor_id;sensor_type;location;lat;lon;timestamp;P1;durP1;ratioP1;P2;durP2;ratioP2
75774;SDS011;64505;51.458;7.556;2023-02-24T00:00:18;23.88;;;5.47;;
75774;SDS011;64505;51.458;7.556;2023-02-24T00:02:32;30.42;;;6.80;;
75774;SDS011;64505;51.458;7.556;2023-02-24T00:04:35;22.65;;;5.78;;
75774;SDS011;64505;51.458;7.556;2023-02-24T00:06:40;22.73;;;6.10;;
75774;SDS011;64505;51.458;7.556;2023-02-24T00:08:43;23.67;;;6.53;;
75774;SDS011;64505;51.458;7.556;2023-02-24T00:10:46;24.27;;;6.47;;
75774;SDS011;64505;51.458;7.556;2023-02-24T00:12:47;36.20;;;6.38;;
75774;SDS011;64505;51.458;7.556;2023-02-24T00:14:49;24.73;;;6.10;;
75774;SDS011;64505;51.458;7.556;2023-02-24T00:16:51;19.10;;;5.78;;
75774;SDS011;64505;51.458;7.556;2023-02-24T00:18:54;20.70;;;5.72;;
75774;SDS011;64505;51.458;7.556;2023-02-24T00:20:55;23.73;;;6.20;;
75774;SDS011;64505;51.458;7.556;2023-02-24T00:22:57;23.98;;;5.57;;
75774;SDS011;64505;51.458;7.556;2023-02-24T00:25:00;21.27;;;5.60;;
75774;SDS011;64505;51.458;7.556;2023-02-24T00:27:04;30.88;;;6.10;;
75774;SDS011;64505;51.458;7.556;2023-02-24T00:29:11;22.63;;;6.15;;
75774;SDS011;64505;51.458;7.556;2023-02-24T00:31:16;21.05;;;5.18;;
75774;SDS011;64505;51.458;7.556;2023-02-24T00:33:20;23.98;;;6.03;;
75774;SDS011;64505;51.458;7.556;2023-02-24T00:35:24;19.33;;;5.03;;
75774;SDS011;64505;51.458;7.556;2023-02-24T00:37:25;24.30;;;5.85;;
75774;SDS011;64505;51.458;7.556;2023-02-24T00:39:27;25.27;;;5.22;;
75774;SDS011;64505;51.458;7.556;2023-02-24T00:41:38;24.05;;;5.05;;
75774;SDS011;64505;51.458;7.556;2023-02-24T00:43:43;20.83;;;4.55;;
75774;SDS011;64505;51.458;7.556;2023-02-24T00:45:48;17.90;;;5.22;;
75774;SDS011;64505;51.458;7.556;2023-02-24T00:47:51;27.95;;;5.25;;
75774;SDS011;64505;51.458;7.556;2023-02-24T00:49:53;20.02;;;4.72;;
75774;SDS011;64505;51.458;7.556;2023-02-24T00:51:54;18.27;;;5.03;;
75774;SDS011;64505;51.458;7.556;2023-02-24T00:53:56;20.23;;;4.85;;
75774;SDS011;64505;51.458;7.556;2023-02-24T00:55:58;25.05;;;5.20;;
75774;SDS011;64505;51.458;7.556;2023-02-24T00:58:02;17.80;;;4.32;;
75774;SDS011;64505;51.458;7.556;2023-02-24T01:00:04;21.55;;;4.25;;
75774;SDS011;64505;51.458;7.556;2023-02-24T01:02:12;22.42;;;4.32;;
75774;SDS011;64505;51.458;7.556;2023-02-24T01:04:14;21.38;;;4.57;;
75774;SDS011;64505;51.458;7.556;2023-02-24T01:06:18;21.45;;;4.65;;
75774;SDS011;64505;51.458;7.556;2023-02-24T01:08:21;17.27;;;3.75;;
75774;SDS011;64505;51.458;7.556;2023-02-24T01:10:23;18.60;;;3.83;;
75774;SDS011;64505;51.458;7.556;2023-02-24T01:12:26;20.15;;;4.05;;
75774;SDS011;64505;51.458;7.556;2023-02-24T01:14:51;22.20;;;3.60;;
75774;SDS011;64505;51.458;7.556;2023-02-24T01:16:53;22.30;;;4.10;;
75774;SDS011;64505;51.458;7.556;2023-02-24T01:18:55;20.50;;;3.88;;
75774;SDS011;64505;51.458;7.556;2023-02-24T01:20:57;22.17;;;4.25;;
75774;SDS011;64505;51.458;7.556;2023-02-24T01:22:58;21.58;;;4.20;;
75774;SDS011;64505;51.458;7.556;2023-02-24T01:25:00;16.17;;;3.63;;
75774;SDS011;64505;51.458;7.556;2023-02-24T01:27:01;21.98;;;4.05;;
75774;SDS011;64505;51.458;7.556;2023-02-24T01:29:04;22.63;;;3.45;;
75774;SDS011;64505;51.458;7.556;2023-02-24T01:31:05;19.80;;;3.50;;
75774;SDS011;64505;51.458;7.556;2023-02-24T01:33:07;20.10;;;3.40;;
75774;SDS011;64505;51.458;7.556;2023-02-24T01:35:09;20.83;;;3.53;;
75774;SDS011;64505;51.458;7.556;2023-02-24T01:37:12;21.50;;;3.30;;
75774;SDS011;64505;51.458;7.556;2023-02-24T01:39:16;15.75;;;2.70;;
75774;SDS011;64505;51.458;7.556;2023-02-24T01:41:20;18.92;;;3.63;;
75774;SDS011;64505;51.458;7.556;2023-02-24T01:43:23;19.50;;;3.38;;
75774;SDS011;64505;51.458;7.556;2023-02-24T01:45:26;11.18;;;2.75;;
75774;SDS011;64505;51.458;7.556;2023-02-24T01:47:29;17.02;;;2.88;;
75774;SDS011;64505;51.458;7.556;2023-02-24T01:49:32;19.60;;;3.10;;
75774;SDS011;64505;51.458;7.556;2023-02-24T01:51:39;15.65;;;2.38;;
75774;SDS011;64505;51.458;7.556;2023-02-24T01:53:44;16.40;;;2.95;;
75774;SDS011;64505;51.458;7.556;2023-02-24T01:55:46;22.60;;;3.15;;
75774;SDS011;64505;51.458;7.556;2023-02-24T01:57:50;17.50;;;2.65;;
75774;SDS011;64505;51.458;7.556;2023-02-24T01:59:53;18.35;;;2.55;;
75774;SDS011;64505;51.458;7.556;2023-02-24T02:02:03;20.30;;;2.95;;
75774;SDS011;64505;51.458;7.556;2023-02-24T02:04:14;17.17;;;3.05;;
75774;SDS011;64505;51.458;7.556;2023-02-24T02:06:21;11.48;;;2.53;;
75774;SDS011;64505;51.458;7.556;2023-02-24T02:08:22;18.60;;;3.13;;
75774;SDS011;64505;51.458;7.556;2023-02-24T02:10:24;16.05;;;3.10;;
75774;SDS011;64505;51.458;7.556;2023-02-24T02:12:29;14.27;;;2.78;;
75774;SDS011;64505;51.458;7.556;2023-02-24T02:14:32;18.58;;;3.72;;
75774;SDS011;64505;51.458;7.556;2023-02-24T02:16:44;18.48;;;3.00;;
75774;SDS011;64505;51.458;7.556;2023-02-24T02:35:15;17.60;;;2.67;;
75774;SDS011;64505;51.458;7.556;2023-02-24T02:40:11;14.98;;;2.75;;
75774;SDS011;64505;51.458;7.556;2023-02-24T02:42:41;20.88;;;2.97;;
75774;SDS011;64505;51.458;7.556;2023-02-24T02:47:26;16.85;;;2.88;;
75774;SDS011;64505;51.458;7.556;2023-02-24T02:49:36;12.57;;;3.28;;
75774;SDS011;64505;51.458;7.556;2023-02-24T02:51:46;13.68;;;2.80;;
75774;SDS011;64505;51.458;7.556;2023-02-24T02:53:58;17.70;;;3.20;;
75774;SDS011;64505;51.458;7.556;2023-02-24T02:56:09;17.98;;;2.50;;
75774;SDS011;64505;51.458;7.556;2023-02-24T02:58:19;17.95;;;3.13;;
75774;SDS011;64505;51.458;7.556;2023-02-24T03:00:27;13.40;;;2.60;;
75774;SDS011;64505;51.458;7.556;2023-02-24T03:02:35;13.85;;;3.00;;
75774;SDS011;64505;51.458;7.556;2023-02-24T03:04:42;16.45;;;3.17;;
75774;SDS011;64505;51.458;7.556;2023-02-24T03:06:52;16.77;;;3.30;;
75774;SDS011;64505;51.458;7.556;2023-02-24T03:11:18;17.88;;;3.70;;
75774;SDS011;64505;51.458;7.556;2023-02-24T03:13:21;20.92;;;3.50;;
75774;SDS011;64505;51.458;7.556;2023-02-24T03:15:26;13.70;;;3.75;;
75774;SDS011;64505;51.458;7.556;2023-02-24T03:17:32;13.40;;;3.40;;
75774;SDS011;64505;51.458;7.556;2023-02-24T03:19:41;17.90;;;3.13;;
75774;SDS011;64505;51.458;7.556;2023-02-24T03:21:50;14.93;;;2.65;;
75774;SDS011;64505;51.458;7.556;2023-02-24T03:23:59;14.25;;;2.83;;
75774;SDS011;64505;51.458;7.556;2023-02-24T03:26:05;16.92;;;2.92;;
75774;SDS011;64505;51.458;7.556;2023-02-24T03:28:25;10.90;;;2.67;;
75774;SDS011;64505;51.458;7.556;2023-02-24T03:30:39;11.25;;;3.58;;
75774;SDS011;64505;51.458;7.556;2023-02-24T03:32:51;13.70;;;3.00;;
75774;SDS011;64505;51.458;7.556;2023-02-24T03:35:15;17.90;;;2.95;;
75774;SDS011;64505;51.458;7.556;2023-02-24T03:37:22;18.35;;;2.95;;
75774;SDS011;64505;51.458;7.556;2023-02-24T03:39:28;16.88;;;3.20;;
75774;SDS011;64505;51.458;7.556;2023-02-24T03:41:48;18.27;;;4.20;;
75774;SDS011;64505;51.458;7.556;2023-02-24T03:43:56;15.40;;;3.42;;
75774;SDS011;64505;51.458;7.556;2023-02-24T03:45:59;15.63;;;3.42;;
75774;SDS011;64505;51.458;7.556;2023-02-24T03:48:04;16.60;;;3.00;;
75774;SDS011;64505;51.458;7.556;2023-02-24T03:50:12;16.65;;;3.03;;
75774;SDS011;64505;51.458;7.556;2023-02-24T04:01:54;16.15;;;2.83;;
75774;SDS011;64505;51.458;7.556;2023-02-24T04:08:23;19.10;;;2.55;;
75774;SDS011;64505;51.458;7.556;2023-02-24T04:10:35;14.57;;;2.80;;
75774;SDS011;64505;51.458;7.556;2023-02-24T04:12:43;15.02;;;2.50;;
75774;SDS011;64505;51.458;7.556;2023-02-24T04:15:00;18.80;;;2.63;;
75774;SDS011;64505;51.458;7.556;2023-02-24T04:17:19;17.33;;;2.13;;
75774;SDS011;64505;51.458;7.556;2023-02-24T04:19:27;15.00;;;2.40;;
75774;SDS011;64505;51.458;7.556;2023-02-24T04:21:33;18.98;;;3.20;;
75774;SDS011;64505;51.458;7.556;2023-02-24T04:23:39;13.10;;;2.30;;
75774;SDS011;64505;51.458;7.556;2023-02-24T04:25:45;15.48;;;2.78;;
75774;SDS011;64505;51.458;7.556;2023-02-24T04:27:54;17.05;;;2.72;;
75774;SDS011;64505;51.458;7.556;2023-02-24T04:29:58;18.33;;;2.53;;
75774;SDS011;64505;51.458;7.556;2023-02-24T04:32:04;12.15;;;2.50;;
75774;SDS011;64505;51.458;7.556;2023-02-24T04:34:08;12.52;;;2.30;;
75774;SDS011;64505;51.458;7.556;2023-02-24T04:36:10;9.13;;;1.95;;
75774;SDS011;64505;51.458;7.556;2023-02-24T04:38:13;15.35;;;2.83;;
75774;SDS011;64505;51.458;7.556;2023-02-24T04:40:15;14.38;;;2.55;;
75774;SDS011;64505;51.458;7.556;2023-02-24T04:42:18;10.13;;;2.60;;
75774;SDS011;64505;51.458;7.556;2023-02-24T04:44:20;9.27;;;2.08;;
75774;SDS011;64505;51.458;7.556;2023-02-24T04:46:22;12.27;;;2.20;;
75774;SDS011;64505;51.458;7.556;2023-02-24T04:48:23;8.85;;;2.10;;
75774;SDS011;64505;51.458;7.556;2023-02-24T04:50:26;12.48;;;2.33;;
75774;SDS011;64505;51.458;7.556;2023-02-24T04:52:35;10.02;;;2.60;;
75774;SDS011;64505;51.458;7.556;2023-02-24T04:54:36;10.50;;;2.30;;
75774;SDS011;64505;51.458;7.556;2023-02-24T04:56:38;10.88;;;2.28;;
75774;SDS011;64505;51.458;7.556;2023-02-24T04:58:40;9.85;;;1.73;;
75774;SDS011;64505;51.458;7.556;2023-02-24T05:00:44;10.75;;;2.50;;
75774;SDS011;64505;51.458;7.556;2023-02-24T05:02:49;9.57;;;1.80;;
75774;SDS011;64505;51.458;7.556;2023-02-24T05:04:51;11.55;;;2.15;;
75774;SDS011;64505;51.458;7.556;2023-02-24T05:06:52;9.02;;;1.95;;
75774;SDS011;64505;51.458;7.556;2023-02-24T05:08:57;8.65;;;2.40;;
75774;SDS011;64505;51.458;7.556;2023-02-24T05:10:58;12.48;;;2.30;;
75774;SDS011;64505;51.458;7.556;2023-02-24T05:13:04;14.63;;;2.33;;
75774;SDS011;64505;51.458;7.556;2023-02-24T05:15:07;10.05;;;2.20;;
75774;SDS011;64505;51.458;7.556;2023-02-24T05:17:09;14.30;;;2.15;;
75774;SDS011;64505;51.458;7.556;2023-02-24T05:19:14;12.95;;;2.67;;
75774;SDS011;64505;51.458;7.556;2023-02-24T05:21:35;14.43;;;2.35;;
75774;SDS011;64505;51.458;7.556;2023-02-24T05:23:38;12.27;;;2.42;;
75774;SDS011;64505;51.458;7.556;2023-02-24T05:25:41;13.55;;;2.47;;
75774;SDS011;64505;51.458;7.556;2023-02-24T05:27:43;12.75;;;2.58;;
75774;SDS011;64505;51.458;7.556;2023-02-24T05:29:45;13.48;;;2.30;;
75774;SDS011;64505;51.458;7.556;2023-02-24T05:31:46;12.93;;;2.20;;
75774;SDS011;64505;51.458;7.556;2023-02-24T05:33:48;8.45;;;2.13;;
75774;SDS011;64505;51.458;7.556;2023-02-24T05:35:54;14.55;;;2.42;;
75774;SDS011;64505;51.458;7.556;2023-02-24T05:37:56;9.23;;;1.85;;
75774;SDS011;64505;51.458;7.556;2023-02-24T05:39:59;16.13;;;2.33;;
75774;SDS011;64505;51.458;7.556;2023-02-24T05:42:00;10.77;;;2.10;;
75774;SDS011;64505;51.458;7.556;2023-02-24T05:44:07;11.40;;;2.63;;
75774;SDS011;64505;51.458;7.556;2023-02-24T05:46:11;9.48;;;1.95;;
75774;SDS011;64505;51.458;7.556;2023-02-24T05:48:13;12.20;;;2.40;;
75774;SDS011;64505;51.458;7.556;2023-02-24T05:50:15;13.95;;;2.65;;
75774;SDS011;64505;51.458;7.556;2023-02-24T05:52:17;10.95;;;2.22;;
75774;SDS011;64505;51.458;7.556;2023-02-24T05:54:24;10.38;;;1.73;;
75774;SDS011;64505;51.458;7.556;2023-02-24T05:56:31;9.68;;;1.85;;
75774;SDS011;64505;51.458;7.556;2023-02-24T05:58:34;5.85;;;1.77;;
75774;SDS011;64505;51.458;7.556;2023-02-24T06:00:39;6.70;;;2.35;;
75774;SDS011;64505;51.458;7.556;2023-02-24T06:02:46;13.10;;;1.80;;
75774;SDS011;64505;51.458;7.556;2023-02-24T06:04:50;11.15;;;1.75;;
75774;SDS011;64505;51.458;7.556;2023-02-24T06:06:53;13.90;;;1.95;;
75774;SDS011;64505;51.458;7.556;2023-02-24T06:08:55;10.95;;;2.20;;
75774;SDS011;64505;51.458;7.556;2023-02-24T06:10:57;9.00;;;1.88;;
75774;SDS011;64505;51.458;7.556;2023-02-24T06:13:00;14.15;;;1.77;;
75774;SDS011;64505;51.458;7.556;2023-02-24T06:15:02;7.13;;;2.15;;
75774;SDS011;64505;51.458;7.556;2023-02-24T06:17:07;13.73;;;1.92;;
75774;SDS011;64505;51.458;7.556;2023-02-24T06:19:10;11.60;;;1.90;;
75774;SDS011;64505;51.458;7.556;2023-02-24T06:21:12;12.23;;;2.30;;
75774;SDS011;64505;51.458;7.556;2023-02-24T06:23:13;11.07;;;1.75;;
75774;SDS011;64505;51.458;7.556;2023-02-24T06:25:16;9.20;;;2.75;;
75774;SDS011;64505;51.458;7.556;2023-02-24T06:27:19;9.77;;;1.75;;
75774;SDS011;64505;51.458;7.556;2023-02-24T06:29:21;9.80;;;1.65;;
75774;SDS011;64505;51.458;7.556;2023-02-24T06:31:29;10.18;;;2.30;;
75774;SDS011;64505;51.458;7.556;2023-02-24T06:33:33;11.13;;;1.92;;
75774;SDS011;64505;51.458;7.556;2023-02-24T06:35:36;20.35;;;2.40;;
75774;SDS011;64505;51.458;7.556;2023-02-24T06:37:38;9.40;;;2.08;;
75774;SDS011;64505;51.458;7.556;2023-02-24T06:39:41;15.82;;;2.95;;
75774;SDS011;64505;51.458;7.556;2023-02-24T06:41:43;6.10;;;1.88;;
75774;SDS011;64505;51.458;7.556;2023-02-24T06:43:45;8.98;;;2.03;;
75774;SDS011;64505;51.458;7.556;2023-02-24T06:45:48;9.85;;;1.70;;
75774;SDS011;64505;51.458;7.556;2023-02-24T06:47:50;14.48;;;2.22;;
75774;SDS011;64505;51.458;7.556;2023-02-24T06:49:52;9.35;;;2.00;;
75774;SDS011;64505;51.458;7.556;2023-02-24T06:51:54;14.05;;;2.50;;
75774;SDS011;64505;51.458;7.556;2023-02-24T06:53:58;12.25;;;2.45;;
75774;SDS011;64505;51.458;7.556;2023-02-24T06:56:05;11.40;;;2.65;;
75774;SDS011;64505;51.458;7.556;2023-02-24T06:58:16;11.40;;;2.85;;
75774;SDS011;64505;51.458;7.556;2023-02-24T07:00:18;14.93;;;2.67;;
75774;SDS011;64505;51.458;7.556;2023-02-24T07:02:20;18.13;;;3.28;;
75774;SDS011;64505;51.458;7.556;2023-02-24T07:04:25;9.73;;;2.80;;
75774;SDS011;64505;51.458;7.556;2023-02-24T07:06:33;14.65;;;3.03;;
75774;SDS011;64505;51.458;7.556;2023-02-24T07:08:36;11.10;;;2.88;;
75774;SDS011;64505;51.458;7.556;2023-02-24T07:10:38;9.45;;;2.95;;
75774;SDS011;64505;51.458;7.556;2023-02-24T07:12:40;13.02;;;2.97;;
75774;SDS011;64505;51.458;7.556;2023-02-24T07:14:41;11.75;;;3.15;;
75774;SDS011;64505;51.458;7.556;2023-02-24T07:16:43;11.27;;;3.30;;
75774;SDS011;64505;51.458;7.556;2023-02-24T07:18:45;9.20;;;2.67;;
75774;SDS011;64505;51.458;7.556;2023-02-24T07:20:48;13.48;;;2.85;;
75774;SDS011;64505;51.458;7.556;2023-02-24T07:22:50;17.92;;;3.35;;
75774;SDS011;64505;51.458;7.556;2023-02-24T07:24:52;10.38;;;2.92;;
75774;SDS011;64505;51.458;7.556;2023-02-24T07:27:03;16.38;;;3.05;;
75774;SDS011;64505;51.458;7.556;2023-02-24T07:29:07;15.40;;;2.88;;
75774;SDS011;64505;51.458;7.556;2023-02-24T07:31:12;13.38;;;3.22;;
75774;SDS011;64505;51.458;7.556;2023-02-24T07:33:17;11.15;;;3.03;;
75774;SDS011;64505;51.458;7.556;2023-02-24T07:35:19;9.30;;;2.40;;
75774;SDS011;64505;51.458;7.556;2023-02-24T07:37:21;11.23;;;3.03;;
75774;SDS011;64505;51.458;7.556;2023-02-24T07:39:24;6.90;;;2.33;;
75774;SDS011;64505;51.458;7.556;2023-02-24T07:41:26;10.45;;;2.60;;
75774;SDS011;64505;51.458;7.556;2023-02-24T07:43:32;10.70;;;2.28;;
75774;SDS011;64505;51.458;7.556;2023-02-24T07:45:44;10.25;;;2.28;;
75774;SDS011;64505;51.458;7.556;2023-02-24T07:47:47;11.13;;;2.72;;
75774;SDS011;64505;51.458;7.556;2023-02-24T07:49:49;9.70;;;2.35;;
75774;SDS011;64505;51.458;7.556;2023-02-24T07:51:51;14.88;;;3.00;;
75774;SDS011;64505;51.458;7.556;2023-02-24T07:53:58;15.05;;;2.63;;
75774;SDS011;64505;51.458;7.556;2023-02-24T07:56:06;10.18;;;2.63;;
75774;SDS011;64505;51.458;7.556;2023-02-24T07:58:17;7.88;;;2.63;;
75774;SDS011;64505;51.458;7.556;2023-02-24T08:00:19;14.65;;;3.10;;
75774;SDS011;64505;51.458;7.556;2023-02-24T08:02:28;10.43;;;3.30;;
75774;SDS011;64505;51.458;7.556;2023-02-24T08:04:29;10.60;;;3.20;;
75774;SDS011;64505;51.458;7.556;2023-02-24T08:06:37;7.53;;;2.63;;
75774;SDS011;64505;51.458;7.556;2023-02-24T08:08:47;15.65;;;2.70;;
75774;SDS011;64505;51.458;7.556;2023-02-24T08:10:58;14.02;;;3.47;;
75774;SDS011;64505;51.458;7.556;2023-02-24T08:13:04;13.75;;;2.72;;
75774;SDS011;64505;51.458;7.556;2023-02-24T08:15:07;11.88;;;3.08;;
75774;SDS011;64505;51.458;7.556;2023-02-24T08:17:18;15.50;;;2.90;;
75774;SDS011;64505;51.458;7.556;2023-02-24T08:19:22;11.95;;;2.97;;
75774;SDS011;64505;51.458;7.556;2023-02-24T08:21:23;8.23;;;2.60;;
75774;SDS011;64505;51.458;7.556;2023-02-24T08:23:27;8.95;;;2.25;;
75774;SDS011;64505;51.458;7.556;2023-02-24T08:25:33;10.20;;;2.70;;
75774;SDS011;64505;51.458;7.556;2023-02-24T08:27:37;9.60;;;2.83;;
75774;SDS011;64505;51.458;7.556;2023-02-24T08:29:42;17.95;;;3.55;;
75774;SDS011;64505;51.458;7.556;2023-02-24T08:31:58;15.82;;;2.97;;
75774;SDS011;64505;51.458;7.556;2023-02-24T08:33:59;8.18;;;2.25;;
75774;SDS011;64505;51.458;7.556;2023-02-24T08:36:01;10.52;;;2.90;;
75774;SDS011;64505;51.458;7.556;2023-02-24T08:38:04;13.70;;;3.13;;
75774;SDS011;64505;51.458;7.556;2023-02-24T08:40:09;11.00;;;2.28;;
75774;SDS011;64505;51.458;7.556;2023-02-24T08:42:30;15.88;;;2.60;;
75774;SDS011;64505;51.458;7.556;2023-02-24T08:44:34;11.35;;;1.77;;
75774;SDS011;64505;51.458;7.556;2023-02-24T08:46:37;11.70;;;2.78;;
75774;SDS011;64505;51.458;7.556;2023-02-24T08:48:41;16.77;;;2.30;;
75774;SDS011;64505;51.458;7.556;2023-02-24T08:50:46;6.85;;;2.15;;
75774;SDS011;64505;51.458;7.556;2023-02-24T08:52:49;10.23;;;2.33;;
75774;SDS011;64505;51.458;7.556;2023-02-24T08:54:50;9.73;;;2.15;;
75774;SDS011;64505;51.458;7.556;2023-02-24T08:56:54;12.30;;;2.67;;
75774;SDS011;64505;51.458;7.556;2023-02-24T08:58:57;12.45;;;2.20;;
75774;SDS011;64505;51.458;7.556;2023-02-24T09:01:08;9.80;;;2.60;;
75774;SDS011;64505;51.458;7.556;2023-02-24T09:03:20;11.15;;;2.50;;
75774;SDS011;64505;51.458;7.556;2023-02-24T09:05:33;9.73;;;2.67;;
75774;SDS011;64505;51.458;7.556;2023-02-24T09:07:39;8.40;;;2.05;;
75774;SDS011;64505;51.458;7.556;2023-02-24T09:09:42;9.60;;;2.20;;
75774;SDS011;64505;51.458;7.556;2023-02-24T09:13:58;12.32;;;2.65;;
75774;SDS011;64505;51.458;7.556;2023-02-24T09:16:02;14.55;;;2.70;;
75774;SDS011;64505;51.458;7.556;2023-02-24T09:18:04;9.05;;;2.30;;
75774;SDS011;64505;51.458;7.556;2023-02-24T09:22:36;11.02;;;2.17;;
75774;SDS011;64505;51.458;7.556;2023-02-24T09:25:03;8.18;;;2.13;;
75774;SDS011;64505;51.458;7.556;2023-02-24T09:27:18;9.68;;;2.55;;
75774;SDS011;64505;51.458;7.556;2023-02-24T09:29:19;9.82;;;2.45;;
75774;SDS011;64505;51.458;7.556;2023-02-24T09:31:49;9.55;;;2.28;;
75774;SDS011;64505;51.458;7.556;2023-02-24T09:33:55;10.30;;;2.42;;
75774;SDS011;64505;51.458;7.556;2023-02-24T09:36:03;11.93;;;2.53;;
75774;SDS011;64505;51.458;7.556;2023-02-24T09:38:10;9.93;;;2.50;;
75774;SDS011;64505;51.458;7.556;2023-02-24T09:40:16;9.63;;;2.58;;
75774;SDS011;64505;51.458;7.556;2023-02-24T09:42:22;10.35;;;3.00;;
75774;SDS011;64505;51.458;7.556;2023-02-24T09:44:41;11.93;;;2.72;;
75774;SDS011;64505;51.458;7.556;2023-02-24T09:46:48;8.32;;;3.15;;
75774;SDS011;64505;51.458;7.556;2023-02-24T09:48:55;13.52;;;2.65;;
75774;SDS011;64505;51.458;7.556;2023-02-24T09:51:05;10.80;;;2.92;;
75774;SDS011;64505;51.458;7.556;2023-02-24T09:53:14;12.07;;;3.22;;
75774;SDS011;64505;51.458;7.556;2023-02-24T09:58:05;7.72;;;2.58;;
75774;SDS011;64505;51.458;7.556;2023-02-24T10:00:53;11.77;;;2.45;;
75774;SDS011;64505;51.458;7.556;2023-02-24T10:03:28;7.82;;;2.47;;
75774;SDS011;64505;51.458;7.556;2023-02-24T10:05:55;8.13;;;2.13;;
75774;SDS011;64505;51.458;7.556;2023-02-24T10:08:13;9.30;;;1.95;;
75774;SDS011;64505;51.458;7.556;2023-02-24T10:10:26;8.48;;;1.92;;
75774;SDS011;64505;51.458;7.556;2023-02-24T10:12:35;11.10;;;2.15;;
75774;SDS011;64505;51.458;7.556;2023-02-24T10:17:00;15.35;;;3.22;;
75774;SDS011;64505;51.458;7.556;2023-02-24T10:19:28;9.48;;;2.50;;
75774;SDS011;64505;51.458;7.556;2023-02-24T10:21:38;6.97;;;1.80;;
75774;SDS011;64505;51.458;7.556;2023-02-24T10:24:08;10.48;;;2.22;;
75774;SDS011;64505;51.458;7.556;2023-02-24T10:26:20;8.85;;;2.05;;
75774;SDS011;64505;51.458;7.556;2023-02-24T10:29:09;7.97;;;1.73;;
75774;SDS011;64505;51.458;7.556;2023-02-24T10:31:11;11.10;;;1.98;;
75774;SDS011;64505;51.458;7.556;2023-02-24T10:33:29;7.78;;;1.75;;
75774;SDS011;64505;51.458;7.556;2023-02-24T10:35:37;7.47;;;1.73;;
75774;SDS011;64505;51.458;7.556;2023-02-24T10:37:39;11.82;;;1.83;;
75774;SDS011;64505;51.458;7.556;2023-02-24T10:39:40;10.65;;;1.60;;
75774;SDS011;64505;51.458;7.556;2023-02-24T10:41:45;12.23;;;1.70;;
75774;SDS011;64505;51.458;7.556;2023-02-24T10:43:53;7.95;;;1.83;;
75774;SDS011;64505;51.458;7.556;2023-02-24T10:45:57;8.80;;;2.10;;
75774;SDS011;64505;51.458;7.556;2023-02-24T10:48:23;11.35;;;1.83;;
75774;SDS011;64505;51.458;7.556;2023-02-24T10:50:42;13.25;;;2.33;;
75774;SDS011;64505;51.458;7.556;2023-02-24T10:53:00;5.60;;;2.10;;
75774;SDS011;64505;51.458;7.556;2023-02-24T10:55:08;11.30;;;1.88;;
75774;SDS011;64505;51.458;7.556;2023-02-24T10:57:28;7.60;;;1.77;;
75774;SDS011;64505;51.458;7.556;2023-02-24T10:59:52;9.35;;;1.50;;
75774;SDS011;64505;51.458;7.556;2023-02-24T11:04:31;8.52;;;2.00;;
75774;SDS011;64505;51.458;7.556;2023-02-24T11:07:06;13.65;;;2.60;;
75774;SDS011;64505;51.458;7.556;2023-02-24T11:09:34;8.60;;;1.88;;
75774;SDS011;64505;51.458;7.556;2023-02-24T11:11:44;10.40;;;2.05;;
75774;SDS011;64505;51.458;7.556;2023-02-24T11:14:13;5.50;;;1.33;;
75774;SDS011;64505;51.458;7.556;2023-02-24T11:17:11;5.20;;;1.50;;
75774;SDS011;64505;51.458;7.556;2023-02-24T11:19:16;9.80;;;1.75;;
75774;SDS011;64505;51.458;7.556;2023-02-24T11:21:17;14.70;;;1.80;;
75774;SDS011;64505;51.458;7.556;2023-02-24T11:24:03;6.07;;;1.75;;
75774;SDS011;64505;51.458;7.556;2023-02-24T11:37:37;7.82;;;1.52;;
75774;SDS011;64505;51.458;7.556;2023-02-24T11:42:14;7.43;;;1.75;;
75774;SDS011;64505;51.458;7.556;2023-02-24T11:46:36;8.73;;;1.70;;
75774;SDS011;64505;51.458;7.556;2023-02-24T11:48:43;10.35;;;2.22;;
75774;SDS011;64505;51.458;7.556;2023-02-24T11:52:56;13.18;;;2.15;;
75774;SDS011;64505;51.458;7.556;2023-02-24T11:55:00;11.20;;;1.98;;
75774;SDS011;64505;51.458;7.556;2023-02-24T11:57:07;10.35;;;2.33;;
75774;SDS011;64505;51.458;7.556;2023-02-24T11:59:18;11.07;;;2.53;;
75774;SDS011;64505;51.458;7.556;2023-02-24T12:03:59;8.55;;;2.03;;
75774;SDS011;64505;51.458;7.556;2023-02-24T12:06:29;7.00;;;2.00;;
75774;SDS011;64505;51.458;7.556;2023-02-24T12:08:37;18.00;;;2.97;;
75774;SDS011;64505;51.458;7.556;2023-02-24T12:10:43;7.60;;;2.28;;
75774;SDS011;64505;51.458;7.556;2023-02-24T12:13:01;10.30;;;2.63;;
75774;SDS011;64505;51.458;7.556;2023-02-24T12:22:08;12.82;;;3.38;;
75774;SDS011;64505;51.458;7.556;2023-02-24T12:24:14;10.23;;;3.70;;
75774;SDS011;64505;51.458;7.556;2023-02-24T12:26:29;11.88;;;3.58;;
75774;SDS011;64505;51.458;7.556;2023-02-24T12:35:50;10.85;;;3.92;;
75774;SDS011;64505;51.458;7.556;2023-02-24T12:40:24;9.10;;;3.72;;
75774;SDS011;64505;51.458;7.556;2023-02-24T12:42:34;12.35;;;4.70;;
75774;SDS011;64505;51.458;7.556;2023-02-24T12:50:09;10.00;;;4.55;;
75774;SDS011;64505;51.458;7.556;2023-02-24T12:54:55;10.23;;;4.22;;
75774;SDS011;64505;51.458;7.556;2023-02-24T12:59:37;11.43;;;5.03;;
75774;SDS011;64505;51.458;7.556;2023-02-24T13:01:44;9.02;;;4.82;;
75774;SDS011;64505;51.458;7.556;2023-02-24T13:06:40;11.15;;;4.97;;
75774;SDS011;64505;51.458;7.556;2023-02-24T13:15:19;7.65;;;4.53;;
75774;SDS011;64505;51.458;7.556;2023-02-24T13:17:24;7.22;;;3.78;;
75774;SDS011;64505;51.458;7.556;2023-02-24T13:19:28;10.68;;;4.30;;
75774;SDS011;64505;51.458;7.556;2023-02-24T13:21:30;9.23;;;4.13;;
75774;SDS011;64505;51.458;7.556;2023-02-24T13:23:33;7.95;;;3.63;;
75774;SDS011;64505;51.458;7.556;2023-02-24T13:25:36;8.88;;;4.20;;
75774;SDS011;64505;51.458;7.556;2023-02-24T13:27:40;9.05;;;4.18;;
75774;SDS011;64505;51.458;7.556;2023-02-24T13:29:46;9.05;;;3.97;;
75774;SDS011;64505;51.458;7.556;2023-02-24T13:31:50;7.30;;;4.38;;
75774;SDS011;64505;51.458;7.556;2023-02-24T13:33:53;9.98;;;4.43;;
75774;SDS011;64505;51.458;7.556;2023-02-24T13:38:25;10.20;;;3.92;;
75774;SDS011;64505;51.458;7.556;2023-02-24T13:40:36;10.90;;;3.78;;
75774;SDS011;64505;51.458;7.556;2023-02-24T13:42:38;8.10;;;3.47;;
75774;SDS011;64505;51.458;7.556;2023-02-24T13:44:46;8.18;;;3.55;;
75774;SDS011;64505;51.458;7.556;2023-02-24T13:52:03;8.10;;;3.05;;
75774;SDS011;64505;51.458;7.556;2023-02-24T13:54:20;5.97;;;3.30;;
75774;SDS011;64505;51.458;7.556;2023-02-24T14:01:13;8.57;;;3.75;;
75774;SDS011;64505;51.458;7.556;2023-02-24T14:03:18;8.32;;;3.78;;
75774;SDS011;64505;51.458;7.556;2023-02-24T14:05:33;7.45;;;3.60;;
75774;SDS011;64505;51.458;7.556;2023-02-24T14:07:36;7.25;;;3.47;;
75774;SDS011;64505;51.458;7.556;2023-02-24T14:09:42;9.20;;;4.15;;
75774;SDS011;64505;51.458;7.556;2023-02-24T14:11:49;7.57;;;3.90;;
75774;SDS011;64505;51.458;7.556;2023-02-24T14:13:55;7.38;;;3.58;;
75774;SDS011;64505;51.458;7.556;2023-02-24T14:15:58;7.13;;;3.78;;
75774;SDS011;64505;51.458;7.556;2023-02-24T14:18:04;7.65;;;4.03;;
75774;SDS011;64505;51.458;7.556;2023-02-24T14:20:07;7.97;;;4.03;;
75774;SDS011;64505;51.458;7.556;2023-02-24T14:22:13;13.25;;;4.72;;
75774;SDS011;64505;51.458;7.556;2023-02-24T14:24:20;7.65;;;3.55;;
75774;SDS011;64505;51.458;7.556;2023-02-24T14:26:22;10.52;;;4.55;;
75774;SDS011;64505;51.458;7.556;2023-02-24T14:28:27;8.50;;;3.95;;
75774;SDS011;64505;51.458;7.556;2023-02-24T14:30:35;8.52;;;4.55;;
75774;SDS011;64505;51.458;7.556;2023-02-24T14:32:39;7.80;;;4.25;;
75774;SDS011;64505;51.458;7.556;2023-02-24T14:34:40;8.60;;;4.85;;
75774;SDS011;64505;51.458;7.556;2023-02-24T14:36:48;10.82;;;5.07;;